Norwegian Queen — WDE5552 — position and weather

sailwx.info

Track history (hours):
 
Tides and Currents Weather Stations Pressure Air Temp Water Temp Dewpoint Dewpoint Depression Visibility Wind Speed Wind Dir Waves Ship Positions

Norwegian Queen

Owner: Norwegian Queen LLC, Boca Raton, FL. More information available from US FCC via Universal Licensing System and Coast Guard Vessel Documentation Center.

Last reported at 2018-May-05 23:41 UTC. Time now 2018-May-22 16:05 UTC.
Position N 26°20' W 080°05'.
Warning: this ship's position is 16 days out of date.

Length 50 m; draft 2.4 m.

Type: Pleasure craft. MMSI: 367368250.

Date/timePositionNaut miles runAvg speedWind from/ knotsBaromVisibWave heightAir tempDewpointWater temp
2018-May-05 23:41N 26°20' W 080°05'1 4.9
2018-May-05 23:31N 26°19' W 080°05'3 5.2
2018-May-05 23:01N 26°16' W 080°05'2 4.8
2018-May-05 22:30N 26°14' W 080°06'3 5.3
2018-May-05 22:00N 26°11' W 080°06'2 4.3
2018-May-05 21:30N 26°09' W 080°06'1 1.4
2018-May-05 21:00N 26°08' W 080°07'0 0.0
2018-May-05 20:30N 26°08' W 080°07'0 0.0
2018-May-05 20:00N 26°08' W 080°07'0 0.0
2018-May-05 19:30N 26°08' W 080°07'0 0.0
2018-May-05 19:00N 26°08' W 080°07'0 0.0
2018-May-05 18:30N 26°08' W 080°07'0 0.0
2018-May-05 18:00N 26°08' W 080°07'0 0.0
2018-May-05 17:30N 26°08' W 080°07'0 0.0
2018-May-05 17:00N 26°08' W 080°07'0 0.0
2018-May-05 16:30N 26°08' W 080°07'0 0.8
2018-May-05 16:00N 26°08' W 080°07'1 2.4
2018-May-05 15:30N 26°07' W 080°07'1 2.9
2018-May-05 15:00N 26°05' W 080°07'1 2.4
2018-May-05 14:30N 26°07' W 080°07'2 4.5
2018-May-05 14:00N 26°09' W 080°06'3 5.8
2018-May-05 13:29N 26°12' W 080°06'3 5.5
2018-May-05 13:00N 26°14' W 080°06'2 3.6
2018-May-05 12:30N 26°16' W 080°05'3 6.4
2018-May-05 12:00N 26°19' W 080°05'  
Track history (hours):
 
Tides and Currents Weather Stations Pressure Air Temp Water Temp Dewpoint Dewpoint Depression Visibility Wind Speed Wind Dir Waves Ship Positions

Norwegian Queen

Owner: Norwegian Queen LLC, Boca Raton, FL. More information available from US FCC via Universal Licensing System and Coast Guard Vessel Documentation Center.

Last reported at 2018-May-05 23:41 UTC. Time now 2018-May-22 16:05 UTC.
Position N 26°20' W 080°05'.
Warning: this ship's position is 16 days out of date.

Length 50 m; draft 2.4 m.

Type: Pleasure craft. MMSI: 367368250.

Date/timePositionNaut miles runAvg speedWind from/ knotsBaromVisibWave heightAir tempDewpointWater temp
2018-May-05 23:41N 26°20' W 080°05'1 4.9
2018-May-05 23:31N 26°19' W 080°05'3 5.2
2018-May-05 23:01N 26°16' W 080°05'2 4.8
2018-May-05 22:30N 26°14' W 080°06'3 5.3
2018-May-05 22:00N 26°11' W 080°06'2 4.3
2018-May-05 21:30N 26°09' W 080°06'1 1.4
2018-May-05 21:00N 26°08' W 080°07'0 0.0
2018-May-05 20:30N 26°08' W 080°07'0 0.0
2018-May-05 20:00N 26°08' W 080°07'0 0.0
2018-May-05 19:30N 26°08' W 080°07'0 0.0
2018-May-05 19:00N 26°08' W 080°07'0 0.0
2018-May-05 18:30N 26°08' W 080°07'0 0.0
2018-May-05 18:00N 26°08' W 080°07'0 0.0
2018-May-05 17:30N 26°08' W 080°07'0 0.0
2018-May-05 17:00N 26°08' W 080°07'0 0.0
2018-May-05 16:30N 26°08' W 080°07'0 0.8
2018-May-05 16:00N 26°08' W 080°07'1 2.4
2018-May-05 15:30N 26°07' W 080°07'1 2.9
2018-May-05 15:00N 26°05' W 080°07'1 2.4
2018-May-05 14:30N 26°07' W 080°07'2 4.5
2018-May-05 14:00N 26°09' W 080°06'3 5.8
2018-May-05 13:29N 26°12' W 080°06'3 5.5
2018-May-05 13:00N 26°14' W 080°06'2 3.6
2018-May-05 12:30N 26°16' W 080°05'3 6.4
2018-May-05 12:00N 26°19' W 080°05'  

Dump ship's entire track history